createdAt,value
2019-06-07T00:00:33.559Z,15.13
2019-06-07T00:01:21.148Z,14.98
2019-06-07T00:02:19.770Z,15.03
2019-06-07T00:03:27.545Z,15.00
2019-06-07T00:04:21.465Z,14.90
2019-06-07T00:05:20.115Z,15.03
2019-06-07T00:06:24.539Z,14.86
2019-06-07T00:07:21.812Z,14.94
2019-06-07T00:08:27.172Z,14.95
2019-06-07T00:09:22.707Z,15.01
2019-06-07T00:10:36.135Z,15.09
2019-06-07T00:11:20.693Z,15.12
2019-06-07T00:12:21.467Z,15.13
2019-06-07T00:13:20.391Z,15.19
2019-06-07T00:14:21.191Z,15.15
2019-06-07T00:15:26.563Z,15.22
2019-06-07T00:16:22.874Z,15.25
2019-06-07T00:17:20.445Z,15.27
2019-06-07T00:18:25.444Z,15.20
2019-06-07T00:19:19.911Z,15.23
2019-06-07T00:20:23.409Z,15.15
2019-06-07T00:21:20.536Z,15.15
2019-06-07T00:22:32.581Z,15.22
2019-06-07T00:23:22.573Z,15.20
2019-06-07T00:24:21.889Z,15.23
2019-06-07T00:25:24.118Z,15.27
2019-06-07T00:26:21.231Z,15.22
2019-06-07T00:27:22.295Z,15.16
2019-06-07T00:28:20.165Z,15.16
2019-06-07T00:29:21.858Z,15.22
2019-06-07T00:30:39.532Z,15.12
2019-06-07T00:31:24.020Z,15.09
2019-06-07T00:32:22.098Z,15.15
2019-06-07T00:33:24.111Z,15.12
2019-06-07T00:34:23.144Z,15.12
2019-06-07T00:35:22.358Z,15.15
2019-06-07T00:36:23.043Z,15.18
2019-06-07T00:37:23.442Z,15.12
2019-06-07T00:38:21.828Z,15.13
2019-06-07T00:39:24.573Z,15.05
2019-06-07T00:40:30.883Z,15.04
2019-06-07T00:41:22.228Z,14.98
2019-06-07T00:42:21.647Z,15.09
2019-06-07T00:43:26.077Z,15.04
2019-06-07T00:44:23.100Z,15.11
2019-06-07T00:45:22.467Z,14.94
2019-06-07T00:46:21.658Z,14.97
2019-06-07T00:47:23.687Z,14.93
2019-06-07T00:48:30.973Z,14.91
2019-06-07T00:49:36.103Z,14.93
2019-06-07T00:50:23.479Z,14.94
2019-06-07T00:51:21.916Z,14.86
2019-06-07T00:53:11.491Z,14.90
2019-06-07T00:53:30.982Z,14.83
2019-06-07T00:54:21.987Z,14.80
2019-06-07T00:55:23.439Z,14.86
2019-06-07T00:56:21.771Z,14.82
2019-06-07T00:57:22.154Z,14.75
2019-06-07T00:58:24.328Z,14.75
2019-06-07T00:59:24.393Z,14.79
2019-06-07T01:00:24.894Z,14.83
2019-06-07T01:01:22.750Z,14.80
2019-06-07T01:02:24.723Z,14.72
2019-06-07T01:03:23.559Z,14.75
2019-06-07T01:04:22.829Z,14.67
2019-06-07T01:05:28.561Z,14.54
2019-06-07T01:06:22.981Z,14.49
2019-06-07T01:07:21.827Z,14.44
2019-06-07T01:08:22.785Z,14.52
2019-06-07T01:09:23.529Z,14.41
2019-06-07T01:10:46.311Z,14.44
2019-06-07T01:11:23.161Z,14.49
2019-06-07T01:12:22.118Z,14.41
2019-06-07T01:13:23.834Z,14.42
2019-06-07T01:14:23.489Z,14.44
2019-06-07T01:15:23.471Z,14.39
2019-06-07T01:16:22.271Z,14.48
2019-06-07T01:17:32.689Z,14.41
2019-06-07T01:18:42.879Z,14.42
2019-06-07T01:19:22.364Z,14.35
2019-06-07T01:20:23.833Z,14.41
2019-06-07T01:21:23.874Z,14.34
2019-06-07T01:22:22.680Z,14.38
2019-06-07T01:23:59.402Z,14.38
2019-06-07T01:24:24.504Z,14.31
2019-06-07T01:25:22.737Z,14.29
2019-06-07T01:26:22.457Z,14.30
2019-06-07T01:27:23.500Z,14.30
2019-06-07T01:28:24.102Z,14.30
2019-06-07T01:29:22.285Z,14.36
2019-06-07T01:30:24.269Z,14.31
2019-06-07T01:31:22.537Z,14.26
2019-06-07T01:32:21.124Z,14.29
2019-06-07T01:33:20.932Z,14.29
2019-06-07T01:34:21.120Z,14.29
2019-06-07T01:35:21.734Z,14.31
2019-06-07T01:36:22.331Z,14.19
2019-06-07T01:37:25.073Z,14.13
2019-06-07T01:38:21.965Z,14.21
2019-06-07T01:39:21.081Z,14.19
2019-06-07T01:40:23.466Z,14.20
2019-06-07T01:41:24.851Z,14.21
2019-06-07T01:42:22.654Z,14.24
2019-06-07T01:43:26.088Z,14.29
2019-06-07T01:44:24.187Z,14.36
2019-06-07T01:45:21.361Z,14.31
2019-06-07T01:46:20.793Z,14.31
2019-06-07T01:47:24.747Z,14.44
2019-06-07T01:48:23.103Z,14.34
2019-06-07T01:49:22.173Z,14.30
2019-06-07T01:50:24.365Z,14.19
2019-06-07T01:51:21.942Z,14.21
2019-06-07T01:52:23.520Z,14.26
2019-06-07T01:53:22.421Z,14.24
2019-06-07T01:54:53.132Z,14.23
2019-06-07T01:55:23.655Z,14.23
2019-06-07T01:56:22.585Z,14.20
2019-06-07T01:57:38.417Z,14.24
2019-06-07T01:58:22.233Z,14.24
2019-06-07T01:59:21.950Z,14.23
2019-06-07T02:00:22.078Z,14.29
2019-06-07T02:01:21.683Z,14.35
2019-06-07T02:02:22.572Z,14.30
2019-06-07T02:03:22.359Z,14.30
2019-06-07T02:04:23.320Z,14.24
2019-06-07T02:05:21.605Z,14.36
2019-06-07T02:06:21.688Z,14.31
2019-06-07T02:07:26.899Z,14.36
2019-06-07T02:08:22.213Z,14.36
2019-06-07T02:09:20.986Z,14.29
2019-06-07T02:10:24.695Z,14.34
2019-06-07T02:11:21.990Z,14.30
2019-06-07T02:12:28.036Z,14.36
2019-06-07T02:13:21.205Z,14.27
2019-06-07T02:14:25.311Z,14.31
2019-06-07T02:15:22.998Z,14.27
2019-06-07T02:16:21.830Z,14.21
2019-06-07T02:17:24.010Z,14.19
2019-06-07T02:18:23.217Z,14.11
2019-06-07T02:19:22.005Z,14.19
2019-06-07T02:20:22.986Z,14.16
2019-06-07T02:21:23.270Z,14.21
2019-06-07T02:22:22.902Z,14.17
2019-06-07T02:23:23.234Z,14.09
2019-06-07T02:24:24.473Z,14.01
2019-06-07T02:25:40.593Z,14.04
2019-06-07T02:26:22.794Z,13.88
2019-06-07T02:27:20.940Z,13.86
2019-06-07T02:28:30.129Z,13.79
2019-06-07T02:29:20.956Z,13.76
2019-06-07T02:30:40.646Z,13.55
2019-06-07T02:31:21.815Z,13.46
2019-06-07T02:32:21.706Z,13.41
2019-06-07T02:33:25.834Z,13.35
2019-06-07T02:34:21.508Z,13.36
2019-06-07T02:35:23.473Z,13.35
2019-06-07T02:36:25.477Z,13.35
2019-06-07T02:37:21.627Z,13.35
2019-06-07T02:38:23.131Z,13.38
2019-06-07T02:39:23.971Z,13.25
2019-06-07T02:40:21.977Z,13.22
2019-06-07T02:41:25.679Z,13.24
2019-06-07T02:42:25.232Z,13.12
2019-06-07T02:43:22.155Z,13.09
2019-06-07T02:44:23.124Z,13.03
2019-06-07T02:45:24.211Z,13.06
2019-06-07T02:46:28.122Z,13.04
2019-06-07T02:47:22.625Z,13.06
2019-06-07T02:48:23.578Z,12.99
2019-06-07T02:49:24.162Z,12.99
2019-06-07T02:50:21.138Z,12.96
2019-06-07T02:51:21.123Z,12.91
2019-06-07T02:52:21.129Z,12.94
2019-06-07T02:53:21.167Z,12.80
2019-06-07T02:54:21.145Z,12.87
2019-06-07T02:55:21.159Z,12.81
2019-06-07T02:56:41.889Z,12.74
2019-06-07T02:57:21.175Z,12.76
2019-06-07T02:58:21.180Z,12.74
2019-06-07T02:59:52.785Z,12.73
2019-06-07T03:00:45.825Z,12.70
2019-06-07T03:01:21.195Z,12.79
2019-06-07T03:02:21.201Z,12.76
2019-06-07T03:03:22.227Z,12.77
2019-06-07T03:05:21.226Z,12.74
2019-06-07T03:06:21.232Z,12.79
2019-06-07T03:07:21.238Z,12.76
2019-06-07T03:08:21.245Z,12.79
2019-06-07T03:09:21.282Z,12.80
2019-06-07T03:10:21.263Z,12.74
2019-06-07T03:11:21.268Z,12.66
2019-06-07T03:12:21.272Z,12.63
2019-06-07T03:13:21.295Z,12.73
2019-06-07T03:14:21.296Z,12.67
2019-06-07T03:15:35.443Z,12.67
2019-06-07T03:16:21.304Z,12.67
2019-06-07T03:17:21.313Z,12.69
2019-06-07T03:18:21.312Z,12.66
2019-06-07T03:19:21.327Z,12.62
2019-06-07T03:20:21.332Z,12.67
2019-06-07T03:21:21.340Z,12.67
2019-06-07T03:22:21.345Z,12.67
2019-06-07T03:23:21.360Z,12.74
2019-06-07T03:24:21.359Z,12.76
2019-06-07T03:25:21.383Z,12.73
2019-06-07T03:26:21.372Z,12.79
2019-06-07T03:27:34.978Z,12.80
2019-06-07T03:28:21.387Z,12.76
2019-06-07T03:29:21.395Z,12.76
2019-06-07T03:30:39.119Z,12.74
2019-06-07T03:31:21.416Z,12.71
2019-06-07T03:32:21.479Z,12.74
2019-06-07T03:33:21.419Z,12.73
2019-06-07T03:34:21.431Z,12.71
2019-06-07T03:35:21.434Z,12.76
2019-06-07T03:36:25.603Z,12.85
2019-06-07T03:37:21.448Z,12.74
2019-06-07T03:38:21.458Z,12.80
2019-06-07T03:39:21.463Z,12.79
2019-06-07T03:40:21.468Z,12.77
2019-06-07T03:41:21.490Z,12.79
2019-06-07T03:42:21.542Z,12.85
2019-06-07T03:43:21.500Z,12.79
2019-06-07T03:44:21.507Z,12.74
2019-06-07T03:45:21.541Z,12.81
2019-06-07T03:46:21.514Z,12.79
2019-06-07T03:47:21.517Z,12.67
2019-06-07T03:48:21.525Z,12.74
2019-06-07T03:49:21.533Z,12.73
2019-06-07T03:50:21.542Z,12.76
2019-06-07T03:51:25.374Z,12.77
2019-06-07T03:52:21.558Z,12.80
2019-06-07T03:53:21.565Z,12.84
2019-06-07T03:54:21.572Z,12.76
2019-06-07T03:55:21.701Z,12.89
2019-06-07T03:56:21.588Z,12.95
2019-06-07T03:57:21.593Z,12.96
2019-06-07T03:58:48.593Z,13.06
2019-06-07T03:59:21.610Z,13.07
2019-06-07T04:00:21.616Z,13.07
2019-06-07T04:01:21.619Z,13.16
2019-06-07T04:02:21.626Z,13.07
2019-06-07T04:03:33.477Z,13.17
2019-06-07T04:04:21.639Z,13.24
2019-06-07T04:05:21.652Z,13.24
2019-06-07T04:06:21.659Z,13.29
2019-06-07T04:07:21.665Z,13.35
2019-06-07T04:08:21.673Z,13.25
2019-06-07T04:09:21.697Z,13.22
2019-06-07T04:10:44.751Z,13.22
2019-06-07T04:11:21.698Z,13.21
2019-06-07T04:12:21.706Z,13.22
2019-06-07T04:13:21.711Z,13.39
2019-06-07T04:14:21.718Z,13.25
2019-06-07T04:15:21.727Z,13.38
2019-06-07T04:16:21.735Z,13.31
2019-06-07T04:17:21.741Z,13.36
2019-06-07T04:18:21.742Z,13.44
2019-06-07T04:19:21.757Z,13.43
2019-06-07T04:20:21.765Z,13.55
2019-06-07T04:21:21.769Z,13.57
2019-06-07T04:22:21.776Z,13.63
2019-06-07T04:23:28.150Z,13.51
2019-06-07T04:24:21.795Z,13.62
2019-06-07T04:25:21.807Z,13.62
2019-06-07T04:26:21.806Z,13.66
2019-06-07T04:27:21.815Z,13.69
2019-06-07T04:28:21.830Z,13.57
2019-06-07T04:29:33.147Z,13.66
2019-06-07T04:30:21.846Z,13.65
2019-06-07T04:31:22.265Z,13.66
2019-06-07T04:32:21.867Z,13.71
2019-06-07T04:33:21.860Z,13.71
2019-06-07T04:34:21.871Z,13.66
2019-06-07T04:35:21.878Z,13.65
2019-06-07T04:36:39.465Z,13.61
2019-06-07T04:37:21.910Z,13.62
2019-06-07T04:38:21.903Z,13.72
2019-06-07T04:39:21.910Z,13.71
2019-06-07T04:40:21.921Z,13.81
2019-06-07T04:41:21.928Z,13.81
2019-06-07T04:42:21.931Z,13.72
2019-06-07T04:43:21.945Z,13.83
2019-06-07T04:44:21.951Z,13.91
2019-06-07T04:45:33.875Z,13.83
2019-06-07T04:46:21.964Z,13.98
2019-06-07T04:47:21.976Z,14.02
2019-06-07T04:48:22.081Z,13.99
2019-06-07T04:49:21.992Z,14.05
2019-06-07T04:50:21.995Z,13.94
2019-06-07T04:51:22.035Z,13.91
2019-06-07T04:52:22.019Z,13.93
2019-06-07T04:53:22.019Z,14.01
2019-06-07T04:54:22.030Z,13.91
2019-06-07T04:55:22.073Z,13.81
2019-06-07T04:56:22.045Z,13.80
2019-06-07T04:57:22.080Z,13.84
2019-06-07T04:58:22.062Z,13.81
2019-06-07T05:00:00.784Z,13.87
2019-06-07T05:00:48.496Z,14.01
2019-06-07T05:01:27.294Z,13.98
2019-06-07T05:02:22.092Z,13.94
2019-06-07T05:03:22.102Z,14.04
2019-06-07T05:04:22.107Z,13.94
2019-06-07T05:05:22.116Z,13.96
2019-06-07T05:06:22.126Z,13.91
2019-06-07T05:07:22.165Z,14.06
2019-06-07T05:08:28.151Z,14.01
2019-06-07T05:09:22.147Z,14.04
2019-06-07T05:10:22.158Z,14.11
2019-06-07T05:11:22.169Z,14.16
2019-06-07T05:12:22.173Z,14.26
2019-06-07T05:13:22.178Z,14.23
2019-06-07T05:14:22.191Z,14.21
2019-06-07T05:15:22.203Z,14.26
2019-06-07T05:16:22.240Z,14.42
2019-06-07T05:17:22.215Z,14.29
2019-06-07T05:18:22.221Z,14.41
2019-06-07T05:19:22.231Z,14.41
2019-06-07T05:20:22.239Z,14.39
2019-06-07T05:21:22.251Z,14.48
2019-06-07T05:22:22.256Z,14.64
2019-06-07T05:23:59.910Z,14.66
2019-06-07T05:24:22.270Z,14.71
2019-06-07T05:25:22.281Z,14.67
2019-06-07T05:26:22.286Z,14.78
2019-06-07T05:27:22.303Z,14.80
2019-06-07T05:28:22.310Z,14.94
2019-06-07T05:29:22.322Z,14.97
2019-06-07T05:30:59.947Z,14.91
2019-06-07T05:31:22.334Z,14.95
2019-06-07T05:32:22.363Z,15.01
2019-06-07T05:33:22.494Z,14.98
2019-06-07T05:34:22.423Z,14.93
2019-06-07T05:35:22.549Z,15.09
2019-06-07T05:36:22.422Z,15.07
2019-06-07T05:37:22.552Z,15.11
2019-06-07T05:38:22.552Z,15.13
2019-06-07T05:39:22.585Z,15.12
2019-06-07T05:40:22.409Z,15.15
2019-06-07T05:41:22.428Z,15.22
2019-06-07T05:42:22.430Z,15.30
2019-06-07T05:43:22.437Z,15.30
2019-06-07T05:44:22.451Z,15.38
2019-06-07T05:45:22.464Z,15.43
2019-06-07T05:46:22.462Z,15.46
2019-06-07T05:47:22.476Z,15.55
2019-06-07T05:48:22.632Z,15.59
2019-06-07T05:49:22.497Z,15.64
2019-06-07T05:50:39.045Z,15.73
2019-06-07T05:51:22.508Z,15.73
2019-06-07T05:52:22.538Z,15.78
2019-06-07T05:53:22.527Z,15.78
2019-06-07T05:54:22.538Z,15.86
2019-06-07T05:55:22.546Z,15.95
2019-06-07T05:56:22.554Z,15.93
2019-06-07T05:57:22.563Z,15.93
2019-06-07T05:58:22.572Z,15.84
2019-06-07T05:59:22.581Z,16.01
2019-06-07T06:00:22.589Z,16.06
2019-06-07T06:01:45.037Z,16.01
2019-06-07T06:02:24.550Z,16.03
2019-06-07T06:03:22.619Z,16.11
2019-06-07T06:04:22.654Z,15.96
2019-06-07T06:05:33.664Z,15.98
2019-06-07T06:06:22.642Z,15.92
2019-06-07T06:07:22.653Z,15.95
2019-06-07T06:08:22.665Z,16.11
2019-06-07T06:09:22.676Z,16.03
2019-06-07T06:10:22.677Z,15.99
2019-06-07T06:11:42.255Z,16.01
2019-06-07T06:12:34.596Z,16.11
2019-06-07T06:13:22.710Z,16.11
2019-06-07T06:14:22.719Z,16.23
2019-06-07T06:15:41.551Z,16.34
2019-06-07T06:16:22.733Z,16.34
2019-06-07T06:17:22.738Z,16.37
2019-06-07T06:18:22.754Z,16.45
2019-06-07T06:19:22.761Z,16.32
2019-06-07T06:20:22.776Z,16.45
2019-06-07T06:21:22.821Z,16.52
2019-06-07T06:22:22.789Z,16.60
2019-06-07T06:23:22.807Z,16.63
2019-06-07T06:24:22.814Z,16.60
2019-06-07T06:25:33.059Z,16.63
2019-06-07T06:26:22.836Z,16.78
2019-06-07T06:28:02.814Z,16.77
2019-06-07T06:28:22.851Z,16.77
2019-06-07T06:29:22.858Z,16.82
2019-06-07T06:30:22.881Z,16.80
2019-06-07T06:31:22.880Z,16.77
2019-06-07T06:33:33.849Z,16.98
2019-06-07T06:34:22.913Z,16.98
2019-06-07T06:35:22.933Z,17.00
2019-06-07T06:36:22.950Z,17.07
2019-06-07T06:37:22.946Z,17.15
2019-06-07T06:38:22.957Z,17.33
2019-06-07T06:39:22.971Z,17.36
2019-06-07T06:40:23.003Z,17.53
2019-06-07T06:41:23.000Z,17.53
2019-06-07T06:42:23.007Z,17.58
2019-06-07T06:43:23.023Z,17.66
2019-06-07T06:44:23.026Z,17.63
2019-06-07T06:45:23.047Z,17.71
2019-06-07T06:46:37.994Z,17.73
2019-06-07T06:47:23.070Z,17.94
2019-06-07T06:48:23.085Z,17.99
2019-06-07T06:49:23.094Z,18.09
2019-06-07T06:50:23.124Z,18.16
2019-06-07T06:51:23.124Z,18.26
2019-06-07T06:52:23.144Z,18.16
2019-06-07T06:53:23.152Z,18.21
2019-06-07T06:54:40.311Z,18.23
2019-06-07T06:55:23.175Z,18.25
2019-06-07T06:56:23.190Z,18.20
2019-06-07T06:57:23.259Z,18.26
2019-06-07T06:58:23.223Z,18.38
2019-06-07T06:59:41.172Z,18.28
2019-06-07T07:00:43.273Z,18.36
2019-06-07T07:01:23.316Z,18.56
2019-06-07T07:02:23.277Z,18.56
2019-06-07T07:04:23.309Z,18.64
2019-06-07T07:05:23.317Z,18.66
2019-06-07T07:06:26.562Z,18.66
2019-06-07T07:07:23.347Z,18.82
2019-06-07T07:08:23.365Z,18.78
2019-06-07T07:09:23.377Z,18.87
2019-06-07T07:10:23.406Z,18.86
2019-06-07T07:11:23.574Z,18.60
2019-06-07T07:12:23.422Z,18.71
2019-06-07T07:13:23.431Z,18.68
2019-06-07T07:14:23.460Z,18.72
2019-06-07T07:15:23.468Z,18.89
2019-06-07T07:16:23.566Z,18.91
2019-06-07T07:17:46.633Z,18.94
2019-06-07T07:18:23.510Z,18.91
2019-06-07T07:19:23.529Z,18.93
2019-06-07T07:20:23.573Z,19.01
2019-06-07T07:21:23.555Z,19.21
2019-06-07T07:22:23.565Z,19.25
2019-06-07T07:23:23.603Z,19.38
2019-06-07T07:24:23.595Z,19.42
2019-06-07T07:25:23.611Z,19.57
2019-06-07T07:26:23.629Z,19.67
2019-06-07T07:27:23.640Z,19.68
2019-06-07T07:28:23.685Z,19.79
2019-06-07T07:29:23.669Z,19.78
2019-06-07T07:30:36.671Z,19.97
2019-06-07T07:31:23.699Z,19.86
2019-06-07T07:32:23.718Z,19.83
2019-06-07T07:33:23.734Z,19.79
2019-06-07T07:34:34.893Z,19.79
2019-06-07T07:35:23.770Z,19.92
2019-06-07T07:36:38.713Z,20.00
2019-06-07T07:37:23.793Z,20.07
2019-06-07T07:38:23.815Z,20.22
2019-06-07T07:39:23.830Z,20.17
2019-06-07T07:41:23.857Z,20.27
2019-06-07T07:42:23.868Z,20.27
2019-06-07T07:43:23.896Z,20.25
2019-06-07T07:44:23.893Z,20.42
2019-06-07T07:45:23.924Z,20.31
2019-06-07T07:46:29.596Z,20.40
2019-06-07T07:47:23.955Z,20.44
2019-06-07T07:48:23.967Z,20.50
2019-06-07T07:49:23.977Z,20.50
2019-06-07T07:50:23.998Z,20.48
2019-06-07T07:51:24.009Z,20.40
2019-06-07T07:52:24.029Z,20.51
2019-06-07T07:53:24.059Z,20.48
2019-06-07T07:54:24.119Z,20.64
2019-06-07T07:55:24.165Z,20.63
2019-06-07T07:56:24.093Z,20.68
2019-06-07T07:57:24.121Z,20.51
2019-06-07T07:58:24.133Z,20.37
2019-06-07T07:59:41.327Z,20.27
2019-06-07T08:00:50.067Z,20.40
2019-06-07T08:01:24.171Z,20.63
2019-06-07T08:02:24.202Z,20.83
2019-06-07T08:03:24.214Z,20.93
2019-06-07T08:05:04.792Z,20.98
2019-06-07T08:05:39.996Z,20.97
2019-06-07T08:06:24.251Z,21.11
2019-06-07T08:07:24.264Z,21.12
2019-06-07T08:08:24.280Z,21.08
2019-06-07T08:09:24.300Z,21.30
2019-06-07T08:10:24.313Z,21.38
2019-06-07T08:11:24.338Z,21.42
2019-06-07T08:12:24.359Z,21.67
2019-06-07T08:13:26.839Z,21.26
2019-06-07T08:14:24.377Z,21.28
2019-06-07T08:15:24.402Z,21.28
2019-06-07T08:16:24.409Z,21.33
2019-06-07T08:17:24.424Z,21.24
2019-06-07T08:18:24.585Z,21.18
2019-06-07T08:19:24.585Z,21.31
2019-06-07T08:20:24.474Z,21.33
2019-06-07T08:21:26.957Z,21.34
2019-06-07T08:22:24.520Z,21.40
2019-06-07T08:23:24.522Z,21.53
2019-06-07T08:24:24.603Z,21.73
2019-06-07T08:25:24.558Z,21.86
2019-06-07T08:26:24.590Z,21.86
2019-06-07T08:27:26.668Z,21.91
2019-06-07T08:28:24.629Z,21.79
2019-06-07T08:29:24.616Z,21.71
2019-06-07T08:31:24.647Z,21.75
2019-06-07T08:32:24.668Z,21.71
2019-06-07T08:33:26.657Z,21.73
2019-06-07T08:34:24.698Z,21.89
2019-06-07T08:36:03.889Z,21.96
2019-06-07T08:36:40.689Z,21.98
2019-06-07T08:38:13.271Z,21.82
2019-06-07T08:38:29.693Z,21.73
2019-06-07T08:39:24.806Z,21.73
2019-06-07T08:40:24.791Z,21.48
2019-06-07T08:41:24.843Z,21.64
2019-06-07T08:42:36.546Z,21.58
2019-06-07T08:43:24.845Z,21.83
2019-06-07T08:44:25.801Z,21.90
2019-06-07T08:45:24.894Z,22.14
2019-06-07T08:46:24.895Z,21.99
2019-06-07T08:47:24.898Z,21.90
2019-06-07T08:48:29.954Z,22.05
2019-06-07T08:49:24.944Z,21.94
2019-06-07T08:50:24.960Z,22.05
2019-06-07T08:51:24.973Z,21.89
2019-06-07T08:52:24.992Z,22.12
2019-06-07T08:53:25.005Z,22.19
2019-06-07T08:54:25.024Z,22.09
2019-06-07T08:55:25.047Z,22.27
2019-06-07T08:56:25.063Z,22.30
2019-06-07T08:57:25.075Z,22.45
2019-06-07T08:58:25.097Z,22.60
2019-06-07T08:59:25.097Z,22.75
2019-06-07T09:01:25.155Z,22.49
2019-06-07T09:02:25.943Z,22.36
2019-06-07T09:03:25.168Z,22.41
2019-06-07T09:04:25.188Z,22.27
2019-06-07T09:05:25.201Z,22.26
2019-06-07T09:07:01.995Z,22.35
2019-06-07T09:07:25.246Z,22.51
2019-06-07T09:08:30.405Z,22.72
2019-06-07T09:09:25.311Z,23.00
2019-06-07T09:10:25.279Z,22.93
2019-06-07T09:11:25.403Z,23.01
2019-06-07T09:12:25.319Z,23.11
2019-06-07T09:13:25.335Z,23.01
2019-06-07T09:14:25.351Z,23.09
2019-06-07T09:15:25.377Z,23.06
2019-06-07T09:16:25.386Z,23.25
2019-06-07T09:17:25.404Z,23.22
2019-06-07T09:18:48.137Z,23.25
2019-06-07T09:19:25.474Z,23.31
2019-06-07T09:20:36.273Z,23.59
2019-06-07T09:21:25.473Z,23.52
2019-06-07T09:22:25.494Z,23.39
2019-06-07T09:23:25.505Z,23.57
2019-06-07T09:24:25.542Z,23.29
2019-06-07T09:25:25.557Z,23.12
2019-06-07T09:26:25.571Z,23.06
2019-06-07T09:28:25.593Z,23.25
2019-06-07T09:29:25.620Z,23.29
2019-06-07T09:30:25.617Z,23.03
2019-06-07T09:31:33.442Z,23.21
2019-06-07T09:32:25.655Z,23.47
2019-06-07T09:33:25.682Z,23.44
2019-06-07T09:34:25.736Z,23.56
2019-06-07T09:35:25.707Z,23.74
2019-06-07T09:36:25.754Z,23.56
2019-06-07T09:38:26.816Z,23.96
2019-06-07T09:39:25.775Z,24.11
2019-06-07T09:40:27.846Z,24.08
2019-06-07T09:41:46.312Z,24.30
2019-06-07T09:42:25.830Z,24.36
2019-06-07T09:44:26.654Z,24.83
2019-06-07T09:45:25.870Z,24.83
2019-06-07T09:46:25.888Z,25.04
2019-06-07T09:47:32.557Z,25.34
2019-06-07T09:49:08.947Z,24.86
2019-06-07T09:49:32.622Z,24.80
2019-06-07T09:50:25.957Z,24.71
2019-06-07T09:51:25.977Z,24.70
2019-06-07T09:52:25.991Z,24.80
2019-06-07T09:53:26.007Z,24.75
2019-06-07T09:55:03.788Z,25.04
2019-06-07T09:55:26.091Z,25.07
2019-06-07T09:56:26.070Z,25.09
2019-06-07T09:57:26.101Z,24.89
2019-06-07T09:59:26.114Z,24.67
2019-06-07T10:00:42.736Z,24.60
2019-06-07T10:01:26.153Z,24.66
2019-06-07T10:02:26.164Z,25.02
2019-06-07T10:03:26.191Z,25.41
2019-06-07T10:04:31.377Z,25.79
2019-06-07T10:05:26.217Z,26.00
2019-06-07T10:06:26.253Z,26.34
2019-06-07T10:07:31.749Z,26.08
2019-06-07T10:09:42.337Z,26.34
2019-06-07T10:10:09.480Z,26.28
2019-06-07T10:11:26.328Z,26.31
2019-06-07T10:12:26.333Z,26.44
2019-06-07T10:13:26.372Z,26.57
2019-06-07T10:14:26.371Z,26.50
2019-06-07T10:15:26.391Z,26.36
2019-06-07T10:16:26.409Z,26.06
2019-06-07T10:17:26.428Z,25.72
2019-06-07T10:18:26.442Z,25.49
2019-06-07T10:19:26.459Z,25.35
2019-06-07T10:20:26.470Z,25.44
2019-06-07T10:21:26.495Z,25.09
2019-06-07T10:22:26.512Z,24.60
2019-06-07T10:23:26.518Z,24.98
2019-06-07T10:24:26.698Z,25.22
2019-06-07T10:25:26.552Z,25.57
2019-06-07T10:26:26.584Z,25.74
2019-06-07T10:27:26.589Z,26.01
2019-06-07T10:28:26.610Z,26.46
2019-06-07T10:29:26.619Z,26.50
2019-06-07T10:30:26.651Z,26.53
2019-06-07T10:31:26.658Z,26.64
2019-06-07T10:32:26.673Z,26.73
2019-06-07T10:33:26.683Z,26.61
2019-06-07T10:34:26.705Z,27.06
2019-06-07T10:35:26.723Z,27.55
2019-06-07T10:36:26.737Z,28.14
2019-06-07T10:37:26.794Z,28.11
2019-06-07T10:38:26.787Z,28.48
2019-06-07T10:39:26.793Z,28.62
2019-06-07T10:40:26.810Z,27.84
2019-06-07T10:41:26.825Z,27.12
2019-06-07T10:42:26.846Z,26.86
2019-06-07T10:43:26.853Z,26.69
2019-06-07T10:44:26.878Z,26.88
2019-06-07T10:45:26.892Z,26.98
2019-06-07T10:46:26.918Z,27.01
2019-06-07T10:47:27.002Z,26.61
2019-06-07T10:48:26.937Z,26.59
2019-06-07T10:49:26.949Z,26.91
2019-06-07T10:50:26.977Z,27.16
2019-06-07T10:51:26.988Z,27.61
2019-06-07T10:52:27.009Z,27.99
2019-06-07T10:53:27.021Z,28.11
2019-06-07T10:54:30.556Z,27.39
2019-06-07T10:55:27.059Z,27.11
2019-06-07T10:56:27.075Z,27.11
2019-06-07T10:57:27.132Z,27.48
2019-06-07T10:58:27.101Z,27.49
2019-06-07T10:59:27.130Z,27.11
2019-06-07T11:00:27.137Z,26.83
2019-06-07T11:01:27.152Z,27.30
2019-06-07T11:02:27.179Z,27.99
2019-06-07T11:03:27.192Z,28.14
2019-06-07T11:04:27.240Z,28.03
2019-06-07T11:05:27.220Z,28.21
2019-06-07T11:06:27.231Z,28.38
2019-06-07T11:07:27.288Z,28.28
2019-06-07T11:08:27.280Z,28.67
2019-06-07T11:09:27.306Z,28.06
2019-06-07T11:10:27.310Z,28.48
2019-06-07T11:11:27.326Z,28.94
2019-06-07T11:12:27.346Z,29.29
2019-06-07T11:13:27.358Z,29.60
2019-06-07T11:14:27.385Z,30.04
2019-06-07T11:15:27.396Z,30.00
2019-06-07T11:16:27.424Z,29.18
2019-06-07T11:17:27.455Z,28.79
2019-06-07T11:18:27.457Z,28.45
2019-06-07T11:19:27.478Z,28.58
2019-06-07T11:20:27.485Z,29.14
2019-06-07T11:21:27.502Z,29.58
2019-06-07T11:22:27.514Z,30.00
2019-06-07T11:23:27.542Z,30.03
2019-06-07T11:24:27.556Z,29.67
2019-06-07T11:25:27.565Z,28.77
2019-06-07T11:26:27.589Z,28.77
2019-06-07T11:27:27.607Z,28.36
2019-06-07T11:28:27.622Z,28.17
2019-06-07T11:29:27.644Z,28.02
2019-06-07T11:30:27.659Z,28.48
2019-06-07T11:31:27.672Z,28.95
2019-06-07T11:32:27.694Z,29.10
2019-06-07T11:33:27.697Z,29.05
2019-06-07T11:34:27.741Z,29.62
2019-06-07T11:35:27.740Z,29.62
2019-06-07T11:36:27.804Z,29.91
2019-06-07T11:37:27.775Z,29.66
2019-06-07T11:38:27.797Z,29.37
2019-06-07T11:39:27.821Z,29.39
2019-06-07T11:40:35.012Z,29.60
2019-06-07T11:41:27.845Z,29.81
2019-06-07T11:42:27.863Z,29.94
2019-06-07T11:43:27.884Z,30.01
2019-06-07T11:44:27.909Z,30.23
2019-06-07T11:45:27.916Z,30.59
2019-06-07T11:46:27.928Z,30.78
2019-06-07T11:47:27.963Z,30.21
2019-06-07T11:48:27.976Z,30.25
2019-06-07T11:49:27.987Z,30.11
2019-06-07T11:50:27.998Z,30.36
2019-06-07T11:52:28.040Z,30.37
2019-06-07T11:53:28.122Z,30.26
2019-06-07T11:54:28.071Z,30.04
2019-06-07T11:55:28.089Z,30.38
2019-06-07T11:56:28.105Z,30.44
2019-06-07T11:57:28.118Z,30.66
2019-06-07T11:58:28.175Z,30.54
2019-06-07T11:59:28.158Z,30.29
2019-06-07T12:00:28.196Z,30.66
2019-06-07T12:01:28.202Z,30.82
2019-06-07T12:02:28.228Z,31.31
2019-06-07T12:03:28.237Z,31.40
2019-06-07T12:04:34.401Z,31.07
2019-06-07T12:05:28.279Z,31.22
2019-06-07T12:06:28.282Z,31.52
2019-06-07T12:07:28.300Z,31.34
2019-06-07T12:08:28.319Z,30.97
2019-06-07T12:09:28.334Z,31.34
2019-06-07T12:10:41.761Z,31.97
2019-06-07T12:11:28.442Z,31.95
2019-06-07T12:12:28.425Z,30.91
2019-06-07T12:13:28.411Z,30.15
2019-06-07T12:14:28.437Z,30.53
2019-06-07T12:15:28.444Z,29.95
2019-06-07T12:16:28.474Z,29.02
2019-06-07T12:17:28.481Z,28.64
2019-06-07T12:18:28.501Z,28.23
2019-06-07T12:19:28.512Z,28.11
2019-06-07T12:20:28.529Z,28.01
2019-06-07T12:21:28.545Z,28.05
2019-06-07T12:22:28.560Z,27.95
2019-06-07T12:23:28.582Z,27.83
2019-06-07T12:24:28.595Z,27.96
2019-06-07T12:25:28.610Z,27.83
2019-06-07T12:26:28.632Z,28.58
2019-06-07T12:27:28.661Z,29.62
2019-06-07T12:28:28.668Z,30.63
2019-06-07T12:29:28.687Z,30.88
2019-06-07T12:30:28.693Z,31.07
2019-06-07T12:31:28.711Z,30.11
2019-06-07T12:32:28.733Z,30.36
2019-06-07T12:33:28.811Z,30.72
2019-06-07T12:34:28.757Z,31.37
2019-06-07T12:35:28.803Z,31.91
2019-06-07T12:36:28.793Z,32.27
2019-06-07T12:37:43.116Z,32.29
2019-06-07T12:38:28.827Z,32.39
2019-06-07T12:39:28.841Z,32.69
2019-06-07T12:40:32.266Z,32.46
2019-06-07T12:41:28.886Z,32.32
2019-06-07T12:42:28.899Z,32.62
2019-06-07T12:43:28.919Z,32.29
2019-06-07T12:44:28.970Z,31.91
2019-06-07T12:45:45.429Z,32.13
2019-06-07T12:46:28.969Z,31.87
2019-06-07T12:47:29.022Z,31.47
2019-06-07T12:48:29.006Z,31.76
2019-06-07T12:49:29.015Z,31.99
2019-06-07T12:50:42.582Z,32.53
2019-06-07T12:51:29.068Z,32.36
2019-06-07T12:52:29.088Z,32.03
2019-06-07T12:53:29.087Z,31.97
2019-06-07T12:54:29.143Z,32.29
2019-06-07T12:55:29.130Z,32.32
2019-06-07T12:56:29.153Z,32.17
2019-06-07T12:57:29.173Z,32.07
2019-06-07T12:58:34.854Z,32.17
2019-06-07T12:59:29.206Z,32.05
2019-06-07T13:00:29.225Z,31.92
2019-06-07T13:01:29.248Z,32.36
2019-06-07T13:02:29.261Z,32.91
2019-06-07T13:03:29.355Z,33.34
2019-06-07T13:04:29.312Z,33.82